createdAt,value
2019-03-01T00:02:47.461Z,60.13
2019-03-01T00:07:01.023Z,60.38
2019-03-01T00:11:14.675Z,60.81
2019-03-01T00:15:25.417Z,61.27
2019-03-01T00:19:45.263Z,61.63
2019-03-01T00:23:59.177Z,63.57
2019-03-01T00:28:29.983Z,61.42
2019-03-01T00:32:49.974Z,61.36
2019-03-01T00:37:17.449Z,61.79
2019-03-01T00:41:28.278Z,62.11
2019-03-01T00:45:33.169Z,62.38
2019-03-01T00:49:38.135Z,62.59
2019-03-01T00:53:43.039Z,62.77
2019-03-01T00:57:47.939Z,62.42
2019-03-01T01:01:52.834Z,62.51
2019-03-01T01:05:57.721Z,62.59
2019-03-01T01:10:02.617Z,62.71
2019-03-01T01:14:08.589Z,63.34
2019-03-01T01:18:13.505Z,63.48
2019-03-01T01:22:18.405Z,63.66
2019-03-01T01:26:23.286Z,63.50
2019-03-01T01:30:28.215Z,63.48
2019-03-01T01:34:33.078Z,63.73
2019-03-01T01:38:37.990Z,64.08
2019-03-01T01:42:42.878Z,64.46
2019-03-01T01:46:47.759Z,64.70
2019-03-01T01:50:52.648Z,64.96
2019-03-01T01:54:57.540Z,65.05
2019-03-01T01:59:02.425Z,64.81
2019-03-01T02:03:07.392Z,64.59
2019-03-01T02:07:12.271Z,64.58
2019-03-01T02:11:17.833Z,64.37
2019-03-01T02:15:22.726Z,64.50
2019-03-01T02:19:28.587Z,64.65
2019-03-01T02:23:33.475Z,64.25
2019-03-01T02:27:38.359Z,64.13
2019-03-01T02:31:46.438Z,63.85
2019-03-01T02:35:51.405Z,64.17
2019-03-01T02:39:56.286Z,64.49
2019-03-01T02:44:01.176Z,64.73
2019-03-01T02:48:06.074Z,64.51
2019-03-01T02:52:10.974Z,64.54
2019-03-01T02:56:15.875Z,64.44
2019-03-01T03:00:23.807Z,64.34
2019-03-01T03:04:28.702Z,64.39
2019-03-01T03:08:33.998Z,64.04
2019-03-01T03:12:38.897Z,64.08
2019-03-01T03:16:43.808Z,64.09
2019-03-01T03:20:48.709Z,63.97
2019-03-01T03:24:53.606Z,63.99
2019-03-01T03:28:58.482Z,64.09
2019-03-01T03:33:04.423Z,64.56
2019-03-01T03:37:09.326Z,64.34
2019-03-01T03:41:14.206Z,64.46
2019-03-01T03:45:19.270Z,64.25
2019-03-01T03:49:24.150Z,64.34
2019-03-01T03:53:29.041Z,64.69
2019-03-01T03:57:33.938Z,65.03
2019-03-01T04:01:38.827Z,65.09
2019-03-01T04:05:43.737Z,65.29
2019-03-01T04:09:48.611Z,65.37
2019-03-01T04:13:53.501Z,65.28
2019-03-01T04:17:58.393Z,65.19
2019-03-01T04:22:03.288Z,64.93
2019-03-01T04:26:08.176Z,65.08
2019-03-01T04:30:17.661Z,65.12
2019-03-01T04:34:22.570Z,65.06
2019-03-01T04:38:27.440Z,65.03
2019-03-01T04:42:32.328Z,65.13
2019-03-01T04:46:37.219Z,65.32
2019-03-01T04:50:42.096Z,65.25
2019-03-01T04:54:46.988Z,65.37
2019-03-01T04:58:51.877Z,65.50
2019-03-01T05:02:56.771Z,65.53
2019-03-01T05:07:01.655Z,65.61
2019-03-01T05:11:06.535Z,65.61
2019-03-01T05:15:20.296Z,65.57
2019-03-01T05:19:25.187Z,65.43
2019-03-01T05:23:30.079Z,65.55
2019-03-01T05:27:34.975Z,65.46
2019-03-01T05:31:39.848Z,65.36
2019-03-01T05:35:44.741Z,65.05
2019-03-01T05:39:49.648Z,64.94
2019-03-01T05:43:54.540Z,65.67
2019-03-01T05:47:59.434Z,63.83
2019-03-01T05:52:04.321Z,63.58
2019-03-01T05:56:09.208Z,63.78
2019-03-01T06:00:14.109Z,64.14
2019-03-01T06:04:24.550Z,64.35
2019-03-01T06:08:47.563Z,64.36
2019-03-01T06:13:04.055Z,64.53
2019-03-01T06:17:43.652Z,64.73
2019-03-01T06:21:57.367Z,64.91
2019-03-01T06:26:26.411Z,65.17
2019-03-01T06:30:55.024Z,66.31
2019-03-01T06:35:08.279Z,65.92
2019-03-01T06:39:36.918Z,65.72
2019-03-01T06:43:56.548Z,66.03
2019-03-01T06:48:01.443Z,65.98
2019-03-01T06:52:06.326Z,66.10
2019-03-01T06:56:11.390Z,67.15
2019-03-01T07:00:16.292Z,66.45
2019-03-01T07:04:21.167Z,66.12
2019-03-01T07:08:26.065Z,65.94
2019-03-01T07:12:30.961Z,65.48
2019-03-01T07:16:36.124Z,65.07
2019-03-01T07:20:41.023Z,65.16
2019-03-01T07:24:45.913Z,64.95
2019-03-01T07:28:50.807Z,64.98
2019-03-01T07:32:55.724Z,65.05
2019-03-01T07:37:00.629Z,64.53
2019-03-01T07:41:05.533Z,64.35
2019-03-01T07:45:12.802Z,63.87
2019-03-01T07:49:17.701Z,63.98
2019-03-01T07:53:22.609Z,64.28
2019-03-01T07:57:28.477Z,64.20
2019-03-01T08:01:33.382Z,65.05
2019-03-01T08:05:39.370Z,64.30
2019-03-01T08:09:45.698Z,63.27
2019-03-01T08:13:53.123Z,63.16
2019-03-01T08:17:57.241Z,63.15
2019-03-01T08:22:02.211Z,64.43
2019-03-01T08:26:07.104Z,64.09
2019-03-01T08:30:14.445Z,63.97
2019-03-01T08:34:20.413Z,63.42
2019-03-01T08:38:28.492Z,63.29
2019-03-01T08:42:32.629Z,63.75
2019-03-01T08:46:42.120Z,63.67
2019-03-01T08:50:45.137Z,63.75
2019-03-01T08:54:50.173Z,63.42
2019-03-01T08:58:55.037Z,62.77
2019-03-01T09:03:03.801Z,62.45
2019-03-01T09:07:08.697Z,60.70
2019-03-01T09:11:14.672Z,60.43
2019-03-01T09:15:19.564Z,60.98
2019-03-01T09:19:25.240Z,61.33
2019-03-01T09:23:31.047Z,61.81
2019-03-01T09:27:35.957Z,62.21
2019-03-01T09:31:40.860Z,62.36
2019-03-01T09:35:56.714Z,62.35
2019-03-01T09:40:05.425Z,62.75
2019-03-01T09:44:08.299Z,63.70
2019-03-01T09:48:13.225Z,63.64
2019-03-01T09:52:20.395Z,63.65
2019-03-01T09:56:24.735Z,64.27
2019-03-01T10:00:34.361Z,62.59
2019-03-01T10:04:39.266Z,62.31
2019-03-01T10:08:44.172Z,61.85
2019-03-01T10:12:50.166Z,61.35
2019-03-01T10:16:55.068Z,61.07
2019-03-01T10:20:59.978Z,60.14
2019-03-01T10:25:07.515Z,60.16
2019-03-01T10:29:12.441Z,59.12
2019-03-01T10:33:17.323Z,58.85
2019-03-01T10:37:22.223Z,58.65
2019-03-01T10:41:27.125Z,59.00
2019-03-01T10:45:32.396Z,57.99
2019-03-01T10:49:37.295Z,57.96
2019-03-01T10:53:42.215Z,56.40
2019-03-01T10:57:47.245Z,57.05
2019-03-01T11:01:53.119Z,57.10
2019-03-01T11:05:58.032Z,56.66
2019-03-01T11:10:03.595Z,56.68
2019-03-01T11:14:08.494Z,55.61
2019-03-01T11:18:13.399Z,54.90
2019-03-01T11:22:18.314Z,53.41
2019-03-01T11:26:23.216Z,53.22
2019-03-01T11:30:30.816Z,52.19
2019-03-01T11:34:36.323Z,52.15
2019-03-01T11:38:41.202Z,52.75
2019-03-01T11:42:46.125Z,53.36
2019-03-01T11:46:51.026Z,54.13
2019-03-01T11:50:55.931Z,55.68
2019-03-01T11:55:00.843Z,56.89
2019-03-01T11:59:05.741Z,58.32
2019-03-01T12:03:10.654Z,59.48
2019-03-01T12:07:15.558Z,60.04
2019-03-01T12:11:20.468Z,59.73
2019-03-01T12:15:25.380Z,59.50
2019-03-01T12:19:30.292Z,59.75
2019-03-01T12:23:35.204Z,60.26
2019-03-01T12:27:40.166Z,60.91
2019-03-01T12:31:45.033Z,61.60
2019-03-01T12:35:49.940Z,62.34
2019-03-01T12:39:54.856Z,62.48
2019-03-01T12:43:59.772Z,62.77
2019-03-01T12:48:04.683Z,62.15
2019-03-01T12:52:09.588Z,62.88
2019-03-01T12:56:15.471Z,63.02
2019-03-01T13:00:26.054Z,62.76
2019-03-01T13:04:30.971Z,62.87
2019-03-01T13:08:36.200Z,62.90
2019-03-01T13:12:41.103Z,62.51
2019-03-01T13:16:46.052Z,62.22
2019-03-01T13:20:50.952Z,61.99
2019-03-01T13:24:55.876Z,62.35
2019-03-01T13:29:00.810Z,62.70
2019-03-01T13:33:05.715Z,62.96
2019-03-01T13:37:14.430Z,63.37
2019-03-01T13:41:17.263Z,63.47
2019-03-01T13:45:26.079Z,63.65
2019-03-01T13:49:31.378Z,63.66
2019-03-01T13:53:37.271Z,64.05
2019-03-01T13:57:42.269Z,64.41
2019-03-01T14:01:47.790Z,64.87
2019-03-01T14:05:54.847Z,64.90
2019-03-01T14:10:00.820Z,65.54
2019-03-01T14:14:07.478Z,65.93
2019-03-01T14:18:12.384Z,65.77
2019-03-01T14:22:17.286Z,65.60
2019-03-01T14:26:23.268Z,65.61
2019-03-01T14:30:30.026Z,66.11
2019-03-01T14:34:35.991Z,66.95
2019-03-01T14:38:40.973Z,66.91
2019-03-01T14:42:47.565Z,66.93
2019-03-01T14:46:52.924Z,67.08
2019-03-01T14:50:59.206Z,65.37
2019-03-01T14:55:05.580Z,65.59
2019-03-01T14:59:19.739Z,64.53
2019-03-01T15:03:33.042Z,64.21
2019-03-01T15:07:37.943Z,63.29
2019-03-01T15:11:44.338Z,63.50
2019-03-01T15:15:49.530Z,62.85
2019-03-01T15:19:55.516Z,63.01
2019-03-01T15:24:01.454Z,63.04
2019-03-01T15:28:06.518Z,63.39
2019-03-01T15:32:12.534Z,63.55
2019-03-01T15:36:18.969Z,63.50
2019-03-01T15:40:24.113Z,63.76
2019-03-01T15:44:29.022Z,63.92
2019-03-01T15:48:34.409Z,64.67
2019-03-01T15:52:40.527Z,65.05
2019-03-01T15:56:45.438Z,65.36
2019-03-01T16:00:50.332Z,65.61
2019-03-01T16:04:55.245Z,65.78
2019-03-01T16:09:00.157Z,66.10
2019-03-01T16:13:08.416Z,66.33
2019-03-01T16:17:11.668Z,66.83
2019-03-01T16:21:16.567Z,67.03
2019-03-01T16:25:21.626Z,67.43
2019-03-01T16:29:26.455Z,67.83
2019-03-01T16:33:31.370Z,68.13
2019-03-01T16:37:37.714Z,68.71
2019-03-01T16:41:43.687Z,68.82
2019-03-01T16:45:48.806Z,69.12
2019-03-01T16:49:53.717Z,69.53
2019-03-01T16:53:58.622Z,69.61
2019-03-01T16:58:07.359Z,69.50
2019-03-01T17:02:11.204Z,69.20
2019-03-01T17:06:16.101Z,69.27
2019-03-01T17:10:22.544Z,69.06
2019-03-01T17:14:27.469Z,68.74
2019-03-01T17:18:33.346Z,68.39
2019-03-01T17:22:38.237Z,68.44
2019-03-01T17:26:43.142Z,68.15
2019-03-01T17:30:50.836Z,67.73
2019-03-01T17:34:54.654Z,68.15
2019-03-01T17:38:59.585Z,66.70
2019-03-01T17:43:04.486Z,66.64
2019-03-01T17:47:10.686Z,67.00
2019-03-01T17:51:18.280Z,67.54
2019-03-01T17:55:24.450Z,67.90
2019-03-01T17:59:29.343Z,68.31
2019-03-01T18:03:34.238Z,68.50
2019-03-01T18:07:39.204Z,69.04
2019-03-01T18:11:44.539Z,69.19
2019-03-01T18:15:50.304Z,68.88
2019-03-01T18:19:55.210Z,69.25
2019-03-01T18:24:00.104Z,69.12
2019-03-01T18:28:05.025Z,69.14
2019-03-01T18:32:10.886Z,69.76
2019-03-01T18:36:15.907Z,70.21
2019-03-01T18:40:20.800Z,70.49
2019-03-01T18:44:26.109Z,70.66
2019-03-01T18:48:33.554Z,70.62
2019-03-01T18:52:38.661Z,70.67
2019-03-01T18:56:43.556Z,70.41
2019-03-01T19:00:50.956Z,69.82
2019-03-01T19:04:56.161Z,69.91
2019-03-01T19:09:01.058Z,69.66
2019-03-01T19:13:07.567Z,70.00
2019-03-01T19:17:12.462Z,70.16
2019-03-01T19:21:18.210Z,70.21
2019-03-01T19:25:25.290Z,70.03
2019-03-01T19:29:29.842Z,70.26
2019-03-01T19:33:37.754Z,70.10
2019-03-01T19:37:41.353Z,69.45
2019-03-01T19:41:46.263Z,68.91
2019-03-01T19:45:51.154Z,69.26
2019-03-01T19:49:56.065Z,68.00
2019-03-01T19:54:02.051Z,66.36
2019-03-01T19:58:08.808Z,66.29
2019-03-01T20:02:14.210Z,66.75
2019-03-01T20:06:19.114Z,67.22
2019-03-01T20:10:24.487Z,66.87
2019-03-01T20:14:30.324Z,67.02
2019-03-01T20:18:36.005Z,66.54
2019-03-01T20:22:40.905Z,66.24
2019-03-01T20:26:45.799Z,66.55
2019-03-01T20:30:50.700Z,66.30
2019-03-01T20:34:55.609Z,66.33
2019-03-01T20:39:00.516Z,66.23
2019-03-01T20:43:07.253Z,66.06
2019-03-01T20:47:12.089Z,65.94
2019-03-01T20:51:16.994Z,65.94
2019-03-01T20:55:23.849Z,65.97
2019-03-01T20:59:28.573Z,65.94
2019-03-01T21:03:33.487Z,65.95
2019-03-01T21:07:38.751Z,65.81
2019-03-01T21:11:43.656Z,65.73
2019-03-01T21:15:48.560Z,65.25
2019-03-01T21:19:53.461Z,65.21
2019-03-01T21:23:58.378Z,64.48
2019-03-01T21:28:03.266Z,64.15
2019-03-01T21:32:08.186Z,64.70
2019-03-01T21:36:13.106Z,63.08
2019-03-01T21:40:18.010Z,62.62
2019-03-01T21:44:22.920Z,62.56
2019-03-01T21:48:27.838Z,62.68
2019-03-01T21:52:33.821Z,62.83
2019-03-01T21:56:41.038Z,62.96
2019-03-01T22:00:45.345Z,63.01
2019-03-01T22:04:50.269Z,62.72
2019-03-01T22:08:55.165Z,62.53
2019-03-01T22:13:00.515Z,62.23
2019-03-01T22:17:06.262Z,62.13
2019-03-01T22:21:11.164Z,62.07
2019-03-01T22:25:16.242Z,62.12
2019-03-01T22:29:21.129Z,62.06
2019-03-01T22:33:26.037Z,62.48
2019-03-01T22:37:30.945Z,62.35
2019-03-01T22:41:39.345Z,62.39
2019-03-01T22:45:45.489Z,62.37
2019-03-01T22:49:49.037Z,62.06
2019-03-01T22:53:53.949Z,62.49
2019-03-01T22:58:00.881Z,62.55
2019-03-01T23:02:08.206Z,62.76
2019-03-01T23:06:14.648Z,62.96
2019-03-01T23:10:21.541Z,62.93
2019-03-01T23:14:27.320Z,63.13
2019-03-01T23:18:33.105Z,63.09
2019-03-01T23:22:38.014Z,62.81
2019-03-01T23:26:42.940Z,62.90
2019-03-01T23:30:47.841Z,62.87
2019-03-01T23:34:52.747Z,62.71
2019-03-01T23:38:57.652Z,62.80
2019-03-01T23:43:02.562Z,62.76
2019-03-01T23:47:07.477Z,63.09
2019-03-01T23:51:12.372Z,63.10
2019-03-01T23:55:18.981Z,63.34
2019-03-01T23:59:26.654Z,63.52
